sensor_id;sensor_type;location;lat;lon;timestamp;pressure;altitude;pressure_sealevel;temperature;humidity
78485;BME280;67773;50.806;8.776;2023-06-01T00:00:36;100053.28;;;13.70;68.05
78485;BME280;67773;50.806;8.776;2023-06-01T00:03:03;100047.44;;;13.64;67.54
78485;BME280;67773;50.806;8.776;2023-06-01T00:05:28;100052.09;;;13.76;68.35
78485;BME280;67773;50.806;8.776;2023-06-01T00:07:54;100057.78;;;13.70;68.09
78485;BME280;67773;50.806;8.776;2023-06-01T00:10:19;100052.72;;;13.65;68.30
78485;BME280;67773;50.806;8.776;2023-06-01T00:12:45;100049.16;;;13.65;68.45
78485;BME280;67773;50.806;8.776;2023-06-01T00:15:10;100046.94;;;13.57;68.66
78485;BME280;67773;50.806;8.776;2023-06-01T00:17:35;100048.50;;;13.45;67.83
78485;BME280;67773;50.806;8.776;2023-06-01T00:20:01;100050.66;;;13.39;68.45
78485;BME280;67773;50.806;8.776;2023-06-01T00:22:29;100048.41;;;13.31;69.15
78485;BME280;67773;50.806;8.776;2023-06-01T00:25:00;100045.75;;;13.31;69.70
78485;BME280;67773;50.806;8.776;2023-06-01T00:27:25;100046.69;;;13.30;69.72
78485;BME280;67773;50.806;8.776;2023-06-01T00:29:50;100051.84;;;13.33;69.36
78485;BME280;67773;50.806;8.776;2023-06-01T00:32:15;100044.66;;;13.35;69.51
78485;BME280;67773;50.806;8.776;2023-06-01T00:34:41;100047.66;;;13.29;69.63
78485;BME280;67773;50.806;8.776;2023-06-01T00:37:06;100045.06;;;13.27;70.15
78485;BME280;67773;50.806;8.776;2023-06-01T00:39:31;100044.97;;;13.29;70.09
78485;BME280;67773;50.806;8.776;2023-06-01T00:41:57;100048.31;;;13.33;70.90
78485;BME280;67773;50.806;8.776;2023-06-01T00:44:22;100043.19;;;13.45;68.86
78485;BME280;67773;50.806;8.776;2023-06-01T00:46:47;100040.75;;;13.41;69.24
78485;BME280;67773;50.806;8.776;2023-06-01T00:49:14;100044.53;;;13.52;69.56
78485;BME280;67773;50.806;8.776;2023-06-01T00:51:40;100041.47;;;13.44;69.14
78485;BME280;67773;50.806;8.776;2023-06-01T00:54:06;100046.69;;;13.46;69.24
78485;BME280;67773;50.806;8.776;2023-06-01T00:56:31;100040.31;;;13.33;68.71
78485;BME280;67773;50.806;8.776;2023-06-01T00:58:59;100045.94;;;13.28;69.26
78485;BME280;67773;50.806;8.776;2023-06-01T01:01:24;100054.69;;;13.30;69.22
78485;BME280;67773;50.806;8.776;2023-06-01T01:03:51;100050.31;;;13.29;69.56
78485;BME280;67773;50.806;8.776;2023-06-01T01:11:51;100045.00;;;13.12;69.53
78485;BME280;67773;50.806;8.776;2023-06-01T01:14:23;100042.00;;;13.02;69.97
78485;BME280;67773;50.806;8.776;2023-06-01T01:17:03;100049.22;;;13.00;70.01
78485;BME280;67773;50.806;8.776;2023-06-01T01:19:39;100054.09;;;12.92;70.16
78485;BME280;67773;50.806;8.776;2023-06-01T01:22:36;100055.31;;;12.86;70.35
78485;BME280;67773;50.806;8.776;2023-06-01T01:25:20;100050.31;;;12.80;71.13
78485;BME280;67773;50.806;8.776;2023-06-01T01:30:41;100061.53;;;12.69;70.89
78485;BME280;67773;50.806;8.776;2023-06-01T01:33:07;100064.91;;;12.73;70.76
78485;BME280;67773;50.806;8.776;2023-06-01T01:35:32;100060.69;;;12.69;70.88
78485;BME280;67773;50.806;8.776;2023-06-01T01:37:59;100063.34;;;12.69;71.16
78485;BME280;67773;50.806;8.776;2023-06-01T01:40:24;100058.50;;;12.60;70.81
78485;BME280;67773;50.806;8.776;2023-06-01T01:42:50;100056.00;;;12.57;71.39
78485;BME280;67773;50.806;8.776;2023-06-01T01:45:16;100053.97;;;12.62;72.04
78485;BME280;67773;50.806;8.776;2023-06-01T01:47:54;100046.78;;;12.47;71.77
78485;BME280;67773;50.806;8.776;2023-06-01T01:50:23;100050.09;;;12.52;71.54
78485;BME280;67773;50.806;8.776;2023-06-01T01:52:51;100049.28;;;12.50;71.39
78485;BME280;67773;50.806;8.776;2023-06-01T01:55:20;100044.75;;;12.52;72.54
78485;BME280;67773;50.806;8.776;2023-06-01T01:57:50;100045.06;;;12.46;72.52
78485;BME280;67773;50.806;8.776;2023-06-01T02:00:17;100041.47;;;12.47;72.46
78485;BME280;67773;50.806;8.776;2023-06-01T02:02:45;100040.13;;;12.38;72.60
78485;BME280;67773;50.806;8.776;2023-06-01T02:05:11;100041.25;;;12.34;71.88
78485;BME280;67773;50.806;8.776;2023-06-01T02:07:36;100041.56;;;12.28;72.71
78485;BME280;67773;50.806;8.776;2023-06-01T02:10:01;100045.16;;;12.27;72.65
78485;BME280;67773;50.806;8.776;2023-06-01T02:12:27;100039.16;;;12.23;72.77
78485;BME280;67773;50.806;8.776;2023-06-01T02:14:52;100038.19;;;12.07;72.95
78485;BME280;67773;50.806;8.776;2023-06-01T02:17:18;100034.84;;;12.21;72.86
78485;BME280;67773;50.806;8.776;2023-06-01T02:19:43;100035.00;;;12.18;73.26
78485;BME280;67773;50.806;8.776;2023-06-01T02:22:09;100038.59;;;12.17;72.19
78485;BME280;67773;50.806;8.776;2023-06-01T02:24:34;100031.56;;;12.16;73.41
78485;BME280;67773;50.806;8.776;2023-06-01T02:27:00;100030.69;;;12.15;72.77
78485;BME280;67773;50.806;8.776;2023-06-01T02:29:25;100023.97;;;12.08;73.15
78485;BME280;67773;50.806;8.776;2023-06-01T02:31:51;100015.38;;;12.03;73.08
78485;BME280;67773;50.806;8.776;2023-06-01T02:34:17;100027.34;;;12.11;73.77
78485;BME280;67773;50.806;8.776;2023-06-01T02:36:43;100031.03;;;12.09;73.82
78485;BME280;67773;50.806;8.776;2023-06-01T02:39:08;100020.53;;;12.06;73.30
78485;BME280;67773;50.806;8.776;2023-06-01T02:41:34;100023.25;;;12.04;73.84
78485;BME280;67773;50.806;8.776;2023-06-01T02:44:00;100026.31;;;11.97;74.21
78485;BME280;67773;50.806;8.776;2023-06-01T02:46:25;100028.19;;;11.95;74.17
78485;BME280;67773;50.806;8.776;2023-06-01T02:48:51;100023.34;;;12.03;74.67
78485;BME280;67773;50.806;8.776;2023-06-01T02:51:16;100020.03;;;11.98;74.27
78485;BME280;67773;50.806;8.776;2023-06-01T02:53:43;100021.53;;;12.03;74.66
78485;BME280;67773;50.806;8.776;2023-06-01T02:56:09;100016.13;;;12.05;74.65
78485;BME280;67773;50.806;8.776;2023-06-01T02:58:35;100017.72;;;11.92;74.69
78485;BME280;67773;50.806;8.776;2023-06-01T03:01:00;100015.84;;;11.94;73.85
78485;BME280;67773;50.806;8.776;2023-06-01T03:03:26;100012.63;;;11.87;73.82
78485;BME280;67773;50.806;8.776;2023-06-01T03:05:52;100013.63;;;11.84;74.47
78485;BME280;67773;50.806;8.776;2023-06-01T03:08:18;100006.13;;;11.93;75.41
78485;BME280;67773;50.806;8.776;2023-06-01T03:10:44;100005.19;;;11.94;75.07
78485;BME280;67773;50.806;8.776;2023-06-01T03:13:10;100009.34;;;11.82;74.22
78485;BME280;67773;50.806;8.776;2023-06-01T03:15:35;100005.09;;;11.78;75.04
78485;BME280;67773;50.806;8.776;2023-06-01T03:18:03;100015.94;;;11.73;75.14
78485;BME280;67773;50.806;8.776;2023-06-01T03:20:28;100013.44;;;11.70;75.32
78485;BME280;67773;50.806;8.776;2023-06-01T03:22:53;100020.50;;;11.71;75.55
78485;BME280;67773;50.806;8.776;2023-06-01T03:25:18;100010.88;;;11.69;75.92
78485;BME280;67773;50.806;8.776;2023-06-01T03:27:44;100012.19;;;11.60;76.41
78485;BME280;67773;50.806;8.776;2023-06-01T03:30:10;100017.09;;;11.50;76.01
78485;BME280;67773;50.806;8.776;2023-06-01T03:32:42;100011.38;;;11.41;76.07
78485;BME280;67773;50.806;8.776;2023-06-01T03:35:09;100012.16;;;11.43;76.73
78485;BME280;67773;50.806;8.776;2023-06-01T03:37:35;100011.38;;;11.41;76.41
78485;BME280;67773;50.806;8.776;2023-06-01T03:40:01;100008.03;;;11.54;76.57
78485;BME280;67773;50.806;8.776;2023-06-01T03:42:35;100009.31;;;11.46;76.75
78485;BME280;67773;50.806;8.776;2023-06-01T03:45:01;100017.53;;;11.41;76.37
78485;BME280;67773;50.806;8.776;2023-06-01T03:47:26;100012.94;;;11.45;77.31
78485;BME280;67773;50.806;8.776;2023-06-01T03:49:51;100011.38;;;11.41;76.52
78485;BME280;67773;50.806;8.776;2023-06-01T03:52:17;100006.66;;;11.46;76.80
78485;BME280;67773;50.806;8.776;2023-06-01T03:54:43;100007.59;;;11.45;76.75
78485;BME280;67773;50.806;8.776;2023-06-01T03:57:08;99999.19;;;11.37;77.12
78485;BME280;67773;50.806;8.776;2023-06-01T03:59:33;100008.94;;;11.36;77.31
78485;BME280;67773;50.806;8.776;2023-06-01T04:01:59;100008.22;;;11.33;77.45
78485;BME280;67773;50.806;8.776;2023-06-01T04:04:26;100003.63;;;11.36;77.70
78485;BME280;67773;50.806;8.776;2023-06-01T04:06:53;100006.50;;;11.32;77.29
78485;BME280;67773;50.806;8.776;2023-06-01T04:09:19;100006.66;;;11.28;77.48
78485;BME280;67773;50.806;8.776;2023-06-01T04:11:47;100012.75;;;11.31;77.71
78485;BME280;67773;50.806;8.776;2023-06-01T04:14:12;100016.09;;;11.34;76.88
78485;BME280;67773;50.806;8.776;2023-06-01T04:16:38;100021.66;;;11.30;76.95
78485;BME280;67773;50.806;8.776;2023-06-01T04:19:04;100020.72;;;11.31;77.34
78485;BME280;67773;50.806;8.776;2023-06-01T04:21:29;100018.84;;;11.33;77.52
78485;BME280;67773;50.806;8.776;2023-06-01T04:23:55;100018.47;;;11.40;77.87
78485;BME280;67773;50.806;8.776;2023-06-01T04:26:20;100017.63;;;11.40;77.49
78485;BME280;67773;50.806;8.776;2023-06-01T04:28:45;100015.25;;;11.34;77.59
78485;BME280;67773;50.806;8.776;2023-06-01T04:31:14;100014.03;;;11.41;77.67
78485;BME280;67773;50.806;8.776;2023-06-01T04:33:44;100019.06;;;11.47;78.16
78485;BME280;67773;50.806;8.776;2023-06-01T04:36:12;100019.97;;;11.46;77.82
78485;BME280;67773;50.806;8.776;2023-06-01T04:38:41;100016.44;;;11.45;77.82
78485;BME280;67773;50.806;8.776;2023-06-01T04:41:08;100013.56;;;11.50;77.79
78485;BME280;67773;50.806;8.776;2023-06-01T04:43:35;100018.91;;;11.50;77.89
78485;BME280;67773;50.806;8.776;2023-06-01T04:46:01;100014.34;;;11.52;77.44
78485;BME280;67773;50.806;8.776;2023-06-01T04:48:29;100019.22;;;11.61;77.50
78485;BME280;67773;50.806;8.776;2023-06-01T04:50:59;100024.25;;;11.67;77.86
78485;BME280;67773;50.806;8.776;2023-06-01T04:53:25;100022.28;;;11.71;77.16
78485;BME280;67773;50.806;8.776;2023-06-01T04:55:51;100020.31;;;11.74;77.15
78485;BME280;67773;50.806;8.776;2023-06-01T04:58:17;100019.22;;;11.80;77.88
78485;BME280;67773;50.806;8.776;2023-06-01T05:00:42;100019.91;;;11.83;77.41
78485;BME280;67773;50.806;8.776;2023-06-01T05:03:07;100014.38;;;11.88;77.38
78485;BME280;67773;50.806;8.776;2023-06-01T05:05:33;100010.91;;;12.03;77.38
78485;BME280;67773;50.806;8.776;2023-06-01T05:07:59;100007.31;;;12.04;77.55
78485;BME280;67773;50.806;8.776;2023-06-01T05:10:24;100009.03;;;12.05;77.05
78485;BME280;67773;50.806;8.776;2023-06-01T05:12:49;100007.84;;;12.11;78.51
78485;BME280;67773;50.806;8.776;2023-06-01T05:15:15;100004.78;;;12.19;78.50
78485;BME280;67773;50.806;8.776;2023-06-01T05:17:41;100008.75;;;12.27;77.71
78485;BME280;67773;50.806;8.776;2023-06-01T05:20:08;100014.47;;;12.37;78.29
78485;BME280;67773;50.806;8.776;2023-06-01T05:22:34;100002.63;;;12.42;77.46
78485;BME280;67773;50.806;8.776;2023-06-01T05:25:00;100004.72;;;12.53;77.17
78485;BME280;67773;50.806;8.776;2023-06-01T05:27:26;100003.88;;;12.68;77.25
78485;BME280;67773;50.806;8.776;2023-06-01T05:29:51;100002.34;;;12.80;76.97
78485;BME280;67773;50.806;8.776;2023-06-01T05:32:16;100007.03;;;12.92;76.40
78485;BME280;67773;50.806;8.776;2023-06-01T05:34:42;99995.69;;;13.05;76.39
78485;BME280;67773;50.806;8.776;2023-06-01T05:37:08;100002.84;;;13.20;75.53
78485;BME280;67773;50.806;8.776;2023-06-01T05:39:33;100005.00;;;13.29;75.77
78485;BME280;67773;50.806;8.776;2023-06-01T05:41:59;100004.66;;;13.35;75.65
78485;BME280;67773;50.806;8.776;2023-06-01T05:44:24;100012.91;;;13.46;74.16
78485;BME280;67773;50.806;8.776;2023-06-01T05:46:50;100003.66;;;13.68;73.30
78485;BME280;67773;50.806;8.776;2023-06-01T05:49:18;100012.84;;;13.78;73.66
78485;BME280;67773;50.806;8.776;2023-06-01T05:51:43;100001.44;;;13.90;72.35
78485;BME280;67773;50.806;8.776;2023-06-01T05:54:09;99997.03;;;13.89;72.33
78485;BME280;67773;50.806;8.776;2023-06-01T05:56:35;99997.25;;;14.00;72.35
78485;BME280;67773;50.806;8.776;2023-06-01T05:59:02;99997.13;;;14.18;69.53
78485;BME280;67773;50.806;8.776;2023-06-01T06:01:28;100003.03;;;14.23;71.37
78485;BME280;67773;50.806;8.776;2023-06-01T06:03:54;100005.13;;;14.32;70.18
78485;BME280;67773;50.806;8.776;2023-06-01T06:06:20;99999.03;;;14.44;69.89
78485;BME280;67773;50.806;8.776;2023-06-01T06:08:47;99995.59;;;14.42;71.62
78485;BME280;67773;50.806;8.776;2023-06-01T06:11:12;99996.38;;;14.44;68.66
78485;BME280;67773;50.806;8.776;2023-06-01T06:13:38;100001.19;;;14.53;69.05
78485;BME280;67773;50.806;8.776;2023-06-01T06:16:03;100000.41;;;14.51;69.23
78485;BME280;67773;50.806;8.776;2023-06-01T06:18:28;99991.25;;;14.69;68.25
78485;BME280;67773;50.806;8.776;2023-06-01T06:20:54;99998.41;;;14.83;69.00
78485;BME280;67773;50.806;8.776;2023-06-01T06:23:19;99997.13;;;14.89;67.85
78485;BME280;67773;50.806;8.776;2023-06-01T06:25:46;99990.75;;;14.91;68.15
78485;BME280;67773;50.806;8.776;2023-06-01T06:28:11;99993.13;;;14.96;67.43
78485;BME280;67773;50.806;8.776;2023-06-01T06:30:36;99987.19;;;15.05;68.95
78485;BME280;67773;50.806;8.776;2023-06-01T06:33:02;99984.53;;;15.05;68.28
78485;BME280;67773;50.806;8.776;2023-06-01T06:35:27;99983.19;;;15.12;69.51
78485;BME280;67773;50.806;8.776;2023-06-01T06:37:53;99985.41;;;15.33;67.86
78485;BME280;67773;50.806;8.776;2023-06-01T06:40:18;99985.22;;;15.36;68.38
78485;BME280;67773;50.806;8.776;2023-06-01T06:42:44;99984.88;;;15.40;66.78
78485;BME280;67773;50.806;8.776;2023-06-01T06:45:10;99976.81;;;15.54;66.95
78485;BME280;67773;50.806;8.776;2023-06-01T06:47:36;99981.59;;;15.64;66.42
78485;BME280;67773;50.806;8.776;2023-06-01T06:50:01;99981.50;;;15.65;66.59
78485;BME280;67773;50.806;8.776;2023-06-01T06:52:27;99986.00;;;15.65;66.45
78485;BME280;67773;50.806;8.776;2023-06-01T06:54:52;99984.41;;;15.75;65.54
78485;BME280;67773;50.806;8.776;2023-06-01T06:57:17;99986.28;;;16.00;66.04
78485;BME280;67773;50.806;8.776;2023-06-01T06:59:42;99987.34;;;16.10;64.71
78485;BME280;67773;50.806;8.776;2023-06-01T07:02:08;99986.28;;;16.25;64.23
78485;BME280;67773;50.806;8.776;2023-06-01T07:04:33;99978.56;;;16.33;64.62
78485;BME280;67773;50.806;8.776;2023-06-01T07:06:59;99980.28;;;16.60;62.64
78485;BME280;67773;50.806;8.776;2023-06-01T07:09:26;99986.53;;;16.73;62.02
78485;BME280;67773;50.806;8.776;2023-06-01T07:11:51;99979.22;;;16.75;61.90
78485;BME280;67773;50.806;8.776;2023-06-01T07:14:17;99985.13;;;16.67;62.79
78485;BME280;67773;50.806;8.776;2023-06-01T07:16:42;99986.28;;;16.63;62.50
78485;BME280;67773;50.806;8.776;2023-06-01T07:19:08;99976.34;;;16.78;61.59
78485;BME280;67773;50.806;8.776;2023-06-01T07:21:33;99983.31;;;16.81;61.48
78485;BME280;67773;50.806;8.776;2023-06-01T07:23:58;99983.63;;;16.89;61.79
78485;BME280;67773;50.806;8.776;2023-06-01T07:26:24;99986.88;;;17.05;61.55
78485;BME280;67773;50.806;8.776;2023-06-01T07:28:52;99974.09;;;17.09;60.83
78485;BME280;67773;50.806;8.776;2023-06-01T07:31:19;99975.38;;;17.16;61.08
78485;BME280;67773;50.806;8.776;2023-06-01T07:33:44;99976.16;;;17.29;60.87
78485;BME280;67773;50.806;8.776;2023-06-01T07:36:10;99981.50;;;17.42;60.67
78485;BME280;67773;50.806;8.776;2023-06-01T07:38:35;99981.16;;;17.46;60.39
78485;BME280;67773;50.806;8.776;2023-06-01T07:41:01;99972.19;;;17.58;59.65
78485;BME280;67773;50.806;8.776;2023-06-01T07:43:26;99978.28;;;17.73;58.88
78485;BME280;67773;50.806;8.776;2023-06-01T07:45:51;99973.03;;;17.72;59.54
78485;BME280;67773;50.806;8.776;2023-06-01T07:48:17;99968.75;;;17.80;59.05
78485;BME280;67773;50.806;8.776;2023-06-01T07:50:42;99970.16;;;17.97;59.12
78485;BME280;67773;50.806;8.776;2023-06-01T07:53:08;99968.03;;;18.13;59.31
78485;BME280;67773;50.806;8.776;2023-06-01T07:55:34;99962.16;;;18.20;58.00
78485;BME280;67773;50.806;8.776;2023-06-01T07:57:59;99959.84;;;18.26;58.39
78485;BME280;67773;50.806;8.776;2023-06-01T08:00:25;99964.00;;;18.41;58.33
78485;BME280;67773;50.806;8.776;2023-06-01T08:02:51;99958.75;;;18.51;58.31
78485;BME280;67773;50.806;8.776;2023-06-01T08:05:18;99952.91;;;18.57;55.77
78485;BME280;67773;50.806;8.776;2023-06-01T08:07:44;99957.09;;;18.72;56.27
78485;BME280;67773;50.806;8.776;2023-06-01T08:10:11;99962.34;;;18.74;55.86
78485;BME280;67773;50.806;8.776;2023-06-01T08:12:37;99958.78;;;18.85;55.83
78485;BME280;67773;50.806;8.776;2023-06-01T08:15:03;99953.50;;;19.06;55.69
78485;BME280;67773;50.806;8.776;2023-06-01T08:17:29;99951.59;;;19.40;54.17
78485;BME280;67773;50.806;8.776;2023-06-01T08:19:54;99950.69;;;19.50;54.73
78485;BME280;67773;50.806;8.776;2023-06-01T08:22:20;99943.97;;;19.45;55.08
78485;BME280;67773;50.806;8.776;2023-06-01T08:24:46;99939.56;;;19.44;54.21
78485;BME280;67773;50.806;8.776;2023-06-01T08:27:22;99939.19;;;19.48;53.72
78485;BME280;67773;50.806;8.776;2023-06-01T08:29:48;99931.97;;;19.49;54.58
78485;BME280;67773;50.806;8.776;2023-06-01T08:32:15;99925.91;;;19.68;52.09
78485;BME280;67773;50.806;8.776;2023-06-01T08:34:43;99926.38;;;19.73;53.21
78485;BME280;67773;50.806;8.776;2023-06-01T08:37:09;99917.41;;;19.83;52.89
78485;BME280;67773;50.806;8.776;2023-06-01T08:39:35;99916.84;;;19.89;52.42
78485;BME280;67773;50.806;8.776;2023-06-01T08:44:53;99910.13;;;20.26;51.80
78485;BME280;67773;50.806;8.776;2023-06-01T08:47:19;99908.75;;;20.62;51.71
78485;BME280;67773;50.806;8.776;2023-06-01T08:49:45;99907.84;;;20.92;50.52
78485;BME280;67773;50.806;8.776;2023-06-01T08:52:15;99906.66;;;21.35;48.86
78485;BME280;67773;50.806;8.776;2023-06-01T08:54:43;99908.94;;;21.29;47.55
78485;BME280;67773;50.806;8.776;2023-06-01T08:57:09;99908.06;;;21.19;48.76
78485;BME280;67773;50.806;8.776;2023-06-01T08:59:35;99900.09;;;21.18;47.32
78485;BME280;67773;50.806;8.776;2023-06-01T09:02:01;99903.22;;;21.23;47.28
78485;BME280;67773;50.806;8.776;2023-06-01T09:04:26;99900.72;;;21.50;44.46
78485;BME280;67773;50.806;8.776;2023-06-01T09:06:52;99901.41;;;21.52;41.31
78485;BME280;67773;50.806;8.776;2023-06-01T09:09:17;99891.59;;;21.61;42.42
78485;BME280;67773;50.806;8.776;2023-06-01T09:11:43;99896.69;;;21.93;43.54
78485;BME280;67773;50.806;8.776;2023-06-01T09:14:22;99876.19;;;22.10;41.22
78485;BME280;67773;50.806;8.776;2023-06-01T09:16:48;99881.56;;;22.19;43.73
78485;BME280;67773;50.806;8.776;2023-06-01T09:19:13;99883.09;;;22.59;42.85
78485;BME280;67773;50.806;8.776;2023-06-01T09:21:39;99878.78;;;23.03;43.20
78485;BME280;67773;50.806;8.776;2023-06-01T09:24:20;99865.69;;;23.52;41.19
78485;BME280;67773;50.806;8.776;2023-06-01T09:26:50;99866.91;;;23.76;40.04
78485;BME280;67773;50.806;8.776;2023-06-01T09:29:16;99861.78;;;23.90;40.50
78485;BME280;67773;50.806;8.776;2023-06-01T09:31:43;99860.44;;;24.46;40.90
78485;BME280;67773;50.806;8.776;2023-06-01T09:34:17;99858.44;;;24.57;39.95
78485;BME280;67773;50.806;8.776;2023-06-01T09:36:50;99858.06;;;24.94;38.59
78485;BME280;67773;50.806;8.776;2023-06-01T09:39:20;99852.75;;;25.35;37.74
78485;BME280;67773;50.806;8.776;2023-06-01T09:41:59;99848.47;;;28.21;32.10
78485;BME280;67773;50.806;8.776;2023-06-01T09:44:31;99828.88;;;32.34;23.98
78485;BME280;67773;50.806;8.776;2023-06-01T09:47:05;99830.00;;;35.14;20.16
78485;BME280;67773;50.806;8.776;2023-06-01T09:49:35;99819.38;;;36.30;18.66
78485;BME280;67773;50.806;8.776;2023-06-01T09:54:33;99819.00;;;36.61;17.86
78485;BME280;67773;50.806;8.776;2023-06-01T09:57:00;99821.44;;;38.10;16.44
78485;BME280;67773;50.806;8.776;2023-06-01T09:59:27;99815.22;;;39.08;15.29
78485;BME280;67773;50.806;8.776;2023-06-01T10:01:57;99801.53;;;40.24;15.03
78485;BME280;67773;50.806;8.776;2023-06-01T10:04:28;99804.03;;;40.83;16.98
78485;BME280;67773;50.806;8.776;2023-06-01T10:06:58;99795.69;;;40.83;16.38
78485;BME280;67773;50.806;8.776;2023-06-01T10:09:25;99802.13;;;40.31;13.97
78485;BME280;67773;50.806;8.776;2023-06-01T10:11:53;99804.78;;;40.06;13.60
78485;BME280;67773;50.806;8.776;2023-06-01T10:14:21;99790.03;;;40.58;13.98
78485;BME280;67773;50.806;8.776;2023-06-01T10:16:52;99795.66;;;40.21;13.25
78485;BME280;67773;50.806;8.776;2023-06-01T10:19:19;99799.38;;;40.42;13.60
78485;BME280;67773;50.806;8.776;2023-06-01T10:21:46;99789.63;;;40.86;13.71
78485;BME280;67773;50.806;8.776;2023-06-01T10:24:12;99791.13;;;40.52;12.67
78485;BME280;67773;50.806;8.776;2023-06-01T10:29:28;99787.88;;;40.80;12.56
78485;BME280;67773;50.806;8.776;2023-06-01T10:31:54;99778.53;;;41.68;11.70
78485;BME280;67773;50.806;8.776;2023-06-01T10:39:27;99775.69;;;40.86;14.20
78485;BME280;67773;50.806;8.776;2023-06-01T10:41:58;99768.91;;;40.72;12.48
78485;BME280;67773;50.806;8.776;2023-06-01T10:54:49;99754.03;;;40.36;12.74
78485;BME280;67773;50.806;8.776;2023-06-01T10:57:22;99759.03;;;41.07;10.91
78485;BME280;67773;50.806;8.776;2023-06-01T11:05:51;99744.94;;;42.44;6.52
78485;BME280;67773;50.806;8.776;2023-06-01T11:19:05;99734.53;;;41.80;7.60
78485;BME280;67773;50.806;8.776;2023-06-01T11:21:40;99726.69;;;41.77;10.32
78485;BME280;67773;50.806;8.776;2023-06-01T11:24:10;99719.44;;;41.86;7.67
78485;BME280;67773;50.806;8.776;2023-06-01T11:26:45;99723.34;;;41.24;12.35
78485;BME280;67773;50.806;8.776;2023-06-01T11:29:19;99722.81;;;41.12;13.48
78485;BME280;67773;50.806;8.776;2023-06-01T11:32:02;99729.59;;;42.91;9.43
78485;BME280;67773;50.806;8.776;2023-06-01T11:34:35;99717.84;;;44.39;7.83
78485;BME280;67773;50.806;8.776;2023-06-01T11:37:03;99718.97;;;42.44;12.83
78485;BME280;67773;50.806;8.776;2023-06-01T11:39:29;99727.25;;;43.08;9.49
78485;BME280;67773;50.806;8.776;2023-06-01T11:42:09;99715.78;;;44.02;8.15
78485;BME280;67773;50.806;8.776;2023-06-01T11:44:37;99714.66;;;42.02;6.86
78485;BME280;67773;50.806;8.776;2023-06-01T11:47:03;99713.59;;;41.01;12.64
78485;BME280;67773;50.806;8.776;2023-06-01T11:49:31;99713.69;;;42.42;8.63
78485;BME280;67773;50.806;8.776;2023-06-01T11:51:56;99709.22;;;43.25;7.45
78485;BME280;67773;50.806;8.776;2023-06-01T11:54:24;99710.53;;;41.79;7.95
78485;BME280;67773;50.806;8.776;2023-06-01T11:56:49;99705.63;;;42.85;10.95
78485;BME280;67773;50.806;8.776;2023-06-01T11:59:16;99698.84;;;41.62;12.29
78485;BME280;67773;50.806;8.776;2023-06-01T12:01:44;99708.31;;;43.05;8.07
78485;BME280;67773;50.806;8.776;2023-06-01T12:04:17;99699.00;;;42.71;7.16
78485;BME280;67773;50.806;8.776;2023-06-01T12:06:43;99701.41;;;42.43;10.99
78485;BME280;67773;50.806;8.776;2023-06-01T12:09:11;99703.44;;;42.77;7.79
78485;BME280;67773;50.806;8.776;2023-06-01T12:11:37;99704.63;;;40.84;12.98
78485;BME280;67773;50.806;8.776;2023-06-01T12:14:03;99689.91;;;40.78;12.02
78485;BME280;67773;50.806;8.776;2023-06-01T12:17:03;99701.03;;;41.85;9.71
78485;BME280;67773;50.806;8.776;2023-06-01T12:19:30;99698.38;;;42.29;8.43
78485;BME280;67773;50.806;8.776;2023-06-01T12:21:57;99697.34;;;42.70;9.17
78485;BME280;67773;50.806;8.776;2023-06-01T12:24:32;99692.88;;;39.89;12.93
78485;BME280;67773;50.806;8.776;2023-06-01T12:27:01;99696.84;;;39.23;13.47
78485;BME280;67773;50.806;8.776;2023-06-01T12:29:38;99689.50;;;39.81;11.33
78485;BME280;67773;50.806;8.776;2023-06-01T12:32:04;99693.63;;;40.26;11.63
78485;BME280;67773;50.806;8.776;2023-06-01T12:34:29;99680.13;;;39.93;13.64
78485;BME280;67773;50.806;8.776;2023-06-01T12:36:55;99683.44;;;39.95;11.68
78485;BME280;67773;50.806;8.776;2023-06-01T12:39:33;99679.09;;;40.04;12.13
78485;BME280;67773;50.806;8.776;2023-06-01T12:42:03;99687.69;;;40.95;14.12
78485;BME280;67773;50.806;8.776;2023-06-01T12:44:30;99677.63;;;40.74;14.42
78485;BME280;67773;50.806;8.776;2023-06-01T12:46:56;99684.25;;;40.53;11.80
78485;BME280;67773;50.806;8.776;2023-06-01T12:49:26;99682.53;;;40.42;14.49
78485;BME280;67773;50.806;8.776;2023-06-01T12:51:53;99678.19;;;40.66;13.02
78485;BME280;67773;50.806;8.776;2023-06-01T12:54:18;99679.00;;;39.94;14.36
78485;BME280;67773;50.806;8.776;2023-06-01T12:56:44;99679.91;;;39.57;15.95
78485;BME280;67773;50.806;8.776;2023-06-01T12:59:09;99682.25;;;39.75;16.72
78485;BME280;67773;50.806;8.776;2023-06-01T13:01:35;99677.06;;;39.52;16.77
78485;BME280;67773;50.806;8.776;2023-06-01T13:04:01;99679.88;;;38.88;17.07
78485;BME280;67773;50.806;8.776;2023-06-01T13:06:28;99683.94;;;38.31;19.70
78485;BME280;67773;50.806;8.776;2023-06-01T13:08:54;99680.69;;;39.15;18.24
78485;BME280;67773;50.806;8.776;2023-06-01T13:11:20;99678.88;;;38.99;17.36
78485;BME280;67773;50.806;8.776;2023-06-01T13:13:48;99673.41;;;39.46;16.00
78485;BME280;67773;50.806;8.776;2023-06-01T13:16:13;99681.09;;;38.48;16.67
78485;BME280;67773;50.806;8.776;2023-06-01T13:18:39;99674.41;;;38.22;17.47
78485;BME280;67773;50.806;8.776;2023-06-01T13:21:05;99673.06;;;39.38;15.95
78485;BME280;67773;50.806;8.776;2023-06-01T13:23:30;99673.53;;;40.09;11.95
78485;BME280;67773;50.806;8.776;2023-06-01T13:25:56;99676.38;;;39.35;13.98
78485;BME280;67773;50.806;8.776;2023-06-01T13:28:21;99676.16;;;39.09;15.34
78485;BME280;67773;50.806;8.776;2023-06-01T13:30:46;99670.78;;;38.97;14.07
78485;BME280;67773;50.806;8.776;2023-06-01T13:33:12;99668.44;;;38.13;15.07
78485;BME280;67773;50.806;8.776;2023-06-01T13:35:37;99666.13;;;37.45;14.71
78485;BME280;67773;50.806;8.776;2023-06-01T13:38:02;99663.00;;;36.91;16.93
78485;BME280;67773;50.806;8.776;2023-06-01T13:40:28;99672.66;;;38.16;16.87
78485;BME280;67773;50.806;8.776;2023-06-01T13:42:53;99668.72;;;38.83;14.09